foto1
foto1
foto1
foto1
foto1


Bienvenue sur le site de l'Aéroclub Dassault Breguet Biarritz

Actualités:

METAR LFBZ

LFBZ 221230Z AUTO 19013G26KT 150V250 CAVOK 21/00 Q1010 NOSIG

TAF LFBZ

TAF LFBZ 221100Z 2212/2312 21010G25KT CAVOK PROB40 TEMPO 2221/2312 20020G30KT

Accès Membres

Réserver un avion

Pour réserver un avion cliquer sur le logo Openflyers

logo openflyers

Flux RSS

Aerobuzz

Actualité et information aéronautique